• Join FlightAware (Why Join?)
  • Login
  • US Flag 
06:12PM EDT


 

Airport Tracker/Info


-or-


 

Live Flight TrackerFlight Track Log ✈ VNR160 ✈ 21-Apr-2013 ✈ KEEN - KSTP

Flight Track Log - Related Links

Times and Time Zones

All times are in EDT time to prevent confusion due to time zone crossing. See the VNR160 flight status page for this flight to view local times or setup timezone preferences in your user account.

Time Position Orientation Groundspeed Altitude Reporting Facility
EDT Latitude Longitude Course Direction KTS MPH feet Rate Location/Type
07:12PM 42.8131 -72.3806 277° West 342 394 6,900  Level Boston Center
07:13PM 42.8275 -72.4569 284° West 253 291 8,600 1,860 Climbing Boston Center
07:14PM 42.8422 -72.5336 285° West 228 262 10,700 1,980 Climbing Boston Center
07:15PM 42.8567 -72.6072 285° West 216 249 12,600 1,860 Climbing Boston Center
07:16PM 42.8733 -72.6867 286° West 216 249 14,500 1,860 Climbing Boston Center
07:17PM 42.9419 -72.9107 277° West  Level FlightAware Approximate
07:17PM 42.8856 -72.7658 282° West 216 249 16,400  Level Boston Center
07:18PM 42.9019 -72.8425 286° West 216 249 18,200 1,560 Climbing Boston Center
07:19PM 42.9161 -72.9278 283° West 216 249 19,600 1,320 Climbing Boston Center
07:20PM 42.9264 -72.9903 283° West 216 249 20,900 1,500 Climbing Boston Center
07:21PM 42.9489 -73.0811 289° West 222 255 22,600 1,500 Climbing Boston Center
07:22PM 42.9608 -73.1636 281° West 222 255 24,000 1,440 Climbing Boston Center
07:23PM 42.9789 -73.2461 287° West 222 255 25,500 1,380 Climbing Boston Center
07:24PM 42.9931 -73.3286 283° West 222 255 26,800 1,200 Climbing Boston Center
07:25PM 42.9964 -73.4281 273° West 222 255 28,000 600 Climbing Boston Center
07:26PM 43.0039 -73.5275 276° West 243 280 28,000  Level Boston Center
07:27PM 43.0131 -73.6356 277° West 271 312 28,000 300 Level Boston Center
07:28PM 43.0203 -73.7464 275° West 287 330 28,600 780 Climbing Boston Center
07:29PM 43.0294 -73.8544 277° West 294 338 29,600 960 Climbing Boston Center
07:30PM 43.0364 -73.9597 275° West 289 333 30,600 960 Climbing Boston Center
07:31PM 43.0433 -74.0594 275° West 279 321 31,600 960 Climbing Boston Center
07:32PM 43.0481 -74.1533 274° West 272 313 32,600 660 Climbing Boston Center
07:33PM 43.0550 -74.2500 276° West 266 306 33,000 180 Climbing Boston Center
07:34PM 43.0594 -74.3553 273° West 266 306 33,000  Level Boston Center
07:35PM 43.0661 -74.4608 275° West 277 319 33,000  Level Boston Center
07:36PM 43.0828 -74.5694 282° West 283 326 33,000  Level Boston Center
07:37PM 43.1375 -74.6622 309° West 294 338 33,000  Level Boston Center
07:38PM 43.1939 -74.7611 308° West 307 353 33,000  Level Boston Center
07:39PM 43.2522 -74.8575 310° West 319 367 33,000 420 Level Boston Center
07:40PM 43.3064 -74.9481 309° West 325 374 33,900 480 Climbing Boston Center
07:41PM 43.3461 -75.0469 299° West 319 367 34,000  Climbing Boston Center
07:42PM 43.3517 -75.1669 274° West 301 346 34,000  Level Boston Center
07:43PM 43.3553 -75.2672 273° West 296 341 34,000  Level Boston Center
07:44PM 43.3608 -75.3844 274° West 301 346 34,000  Level Boston Center
07:46PM 43.3675 -75.5906 273° West 306 352 34,000  Level Cleveland Center
07:46PM 43.3667 -75.6167 267° West 300 345 34,000  Level Toronto Center
07:47PM 43.3667 -75.7333 270° West 310 357 34,000  Level Toronto Center
07:48PM 43.3667 -75.8500 270° West 300 345 34,000  Level Toronto Center
07:49PM 43.3667 -75.9667 270° West 300 345 34,000  Level Toronto Center
07:50PM 43.3667 -76.0833 270° West 300 345 34,000  Level Toronto Center
07:51PM 43.3833 -76.2000 281° West 290 334 34,000  Level Toronto Center
07:52PM 43.3833 -76.2833 270° West 290 334 34,000  Level Toronto Center
07:53PM 43.3950 -76.3831 279° West 301 346 34,000  Level Cleveland Center
07:53PM 43.3833 -76.4167 244° Southwest 290 334 34,000  Level Toronto Center
07:54PM 43.3833 -76.5167 270° West 290 334 34,000  Level Toronto Center
07:55PM 43.3833 -76.6333 270° West 290 334 34,000  Level Toronto Center
07:56PM 43.4044 -76.7139 290° West 289 333 34,000  Level Cleveland Center
07:57PM 43.4081 -76.8253 273° West 289 333 34,000  Level Cleveland Center
07:58PM 43.4094 -76.9394 271° West 289 333 34,000  Level Cleveland Center
07:59PM 43.4111 -77.0594 271° West 289 333 34,000  Level Cleveland Center
08:00PM 43.4142 -77.1594 272° West 289 333 34,000  Level Cleveland Center
08:01PM 43.4133 -77.2739 269° West 289 333 34,000  Level Cleveland Center
08:02PM 43.4186 -77.3850 274° West 289 333 34,000  Level Cleveland Center
08:03PM 43.4194 -77.4992 271° West 294 338 34,000  Level Cleveland Center
08:04PM 43.4203 -77.6108 271° West 294 338 34,000  Level Cleveland Center
08:05PM 43.4253 -77.7247 273° West 294 338 34,000  Level Cleveland Center
08:06PM 43.4261 -77.8392 271° West 294 338 34,000  Level Cleveland Center
08:07PM 43.4264 -77.9506 270° West 294 338 34,000  Level Cleveland Center
08:08PM 43.4292 -78.0678 272° West 294 338 34,000  Level Cleveland Center
08:09PM 43.4314 -78.1819 272° West 294 338 34,000  Level Cleveland Center
08:10PM 43.4339 -78.2933 272° West 294 338 34,000  Level Cleveland Center
08:11PM 43.4339 -78.4078 270° West 299 344 34,000  Level Cleveland Center
08:12PM 43.4358 -78.5192 271° West 299 344 34,000  Level Cleveland Center
08:13PM 43.4358 -78.6336 270° West 299 344 34,000  Level Cleveland Center
08:13PM 43.4333 -78.6667 264° West 300 345 34,000  Level Toronto Center
08:14PM 43.4333 -78.7833 270° West 300 345 34,000  Level Toronto Center
08:15PM 43.4333 -78.9000 270° West 300 345 34,000  Level Toronto Center
08:16PM 43.4333 -79.0167 270° West 300 345 34,000  Level Toronto Center
08:17PM 43.4333 -79.1333 270° West 300 345 34,000  Level Toronto Center
08:18PM 43.4333 -79.2500 270° West 300 345 34,000  Level Toronto Center
08:19PM 43.4333 -79.3500 270° West 300 345 34,000  Level Toronto Center
08:20PM 43.4333 -79.4667 270° West 300 345 34,000  Level Toronto Center
08:21PM 43.4333 -79.5833 270° West 300 345 34,000  Level Toronto Center
08:22PM 43.4333 -79.7000 270° West 300 345 34,000  Level Toronto Center
08:23PM 43.4333 -79.8333 270° West 300 345 34,000  Level Toronto Center
08:24PM 43.4333 -79.9333 270° West 300 345 34,000  Level Toronto Center
08:25PM 43.4333 -80.0500 270° West 300 345 34,000  Level Toronto Center
08:26PM 43.4333 -80.1833 270° West 310 357 34,000  Level Toronto Center
08:27PM 43.4333 -80.3000 270° West 310 357 34,000  Level Toronto Center
08:28PM 43.4333 -80.4167 270° West 310 357 34,000  Level Toronto Center
08:29PM 43.4333 -80.5333 270° West 310 357 34,000  Level Toronto Center
08:30PM 43.4333 -80.6500 270° West 310 357 34,000  Level Toronto Center
08:31PM 43.4333 -80.7500 270° West 310 357 34,000  Level Toronto Center
08:32PM 43.4167 -80.8667 259° West 310 357 34,000  Level Toronto Center
08:33PM 43.4167 -80.9833 270° West 310 357 34,000  Level Toronto Center
08:34PM 43.4167 -81.1333 270° West 310 357 34,000  Level Toronto Center
08:35PM 43.4167 -81.2167 270° West 310 357 34,000  Level Toronto Center
08:36PM 43.4167 -81.3500 270° West 310 357 34,000  Level Toronto Center
08:37PM 43.4167 -81.4667 270° West 310 357 34,000  Level Toronto Center
08:38PM 43.4167 -81.5833 270° West 310 357 34,000  Level Toronto Center
08:39PM 43.4167 -81.7000 270° West 310 357 34,000  Level Toronto Center
08:40PM 43.4167 -81.8167 270° West 310 357 34,000  Level Toronto Center
08:41PM 43.4000 -81.9500 260° West 310 357 34,000  Level Toronto Center
08:42PM 43.4000 -82.0667 270° West 310 357 34,000  Level Toronto Center
08:43PM 43.4117 -82.2006 277° West 309 356 34,000  Level Cleveland Center
08:44PM 43.4078 -82.3206 267° West 309 356 34,000  Level Cleveland Center
08:45PM 43.4081 -82.4406 270° West 309 356 34,000  Level Cleveland Center
08:46PM 43.4019 -82.5633 266° West 314 361 34,000  Level Cleveland Center
08:47PM 43.3997 -82.6833 269° West 314 361 34,000  Level Cleveland Center
08:48PM 43.3953 -82.8031 267° West 314 361 34,000  Level Cleveland Center
08:49PM 43.3931 -82.9231 269° West 314 361 34,000  Level Cleveland Center
08:50PM 43.3883 -83.0456 267° West 319 367 34,000  Level Cleveland Center
08:51PM 43.3836 -83.1656 267° West 319 367 34,000  Level Cleveland Center
08:52PM 43.3831 -83.2883 270° West 324 373 34,000  Level Cleveland Center
08:53PM 43.3781 -83.4050 267° West 324 373 34,000  Level Cleveland Center
08:54PM 43.3750 -83.5278 268° West 324 373 34,000  Level Cleveland Center
08:55PM 43.3700 -83.6475 267° West 324 373 34,000  Level Cleveland Center
08:56PM 43.3664 -83.7758 268° West 329 379 34,000  Level Cleveland Center
08:57PM 43.3608 -83.8983 266° West 329 379 34,000  Level Cleveland Center
08:58PM 43.3572 -84.0239 268° West 329 379 34,000  Level Cleveland Center
08:59PM 43.3514 -84.1522 266° West 329 379 34,000  Level Cleveland Center
09:01PM 43.3431 -84.3814 267° West 335 386 34,000  Level Minneapolis Center
09:02PM 43.3383 -84.5097 267° West 336 387 34,000  Level Minneapolis Center
09:03PM 43.3322 -84.6372 266° West 336 387 34,000  Level Minneapolis Center
09:04PM 43.3267 -84.7653 267° West 338 389 34,000  Level Minneapolis Center
09:05PM 43.3219 -84.8944 267° West 339 390 34,000  Level Minneapolis Center
09:06PM 43.3147 -85.0242 266° West 341 392 34,000  Level Minneapolis Center
09:07PM 43.3083 -85.1817 267° West 344 396 34,000  Level Minneapolis Center
09:08PM 43.3019 -85.3128 266° West 346 398 34,000  Level Minneapolis Center
09:09PM 43.2953 -85.4439 266° West 346 398 34,000  Level Minneapolis Center
09:10PM 43.2883 -85.5764 266° West 349 402 34,000  Level Minneapolis Center
09:11PM 43.2817 -85.7083 266° West 349 402 34,000  Level Minneapolis Center
09:12PM 43.2753 -85.8394 266° West 349 402 34,000  Level Minneapolis Center
09:13PM 43.2667 -85.9983 266° West 351 404 34,000  Level Minneapolis Center
09:14PM 43.2592 -86.1300 266° West 352 405 34,000  Level Minneapolis Center
09:15PM 43.2519 -86.2619 266° West 352 405 34,000  Level Minneapolis Center
09:17PM 43.2439 -86.3944 265° West 351 404 34,000  Level Minneapolis Center
09:18PM 43.2369 -86.5275 266° West 352 405 34,000  Level Minneapolis Center
09:19PM 43.2272 -86.6886 265° West 355 409 34,000  Level Minneapolis Center
09:20PM 43.2192 -86.8219 265° West 354 407 34,000  Level Minneapolis Center
09:21PM 43.2100 -86.9556 265° West 354 407 34,000  Level Minneapolis Center
09:22PM 43.2014 -87.0897 265° West 354 407 34,000  Level Minneapolis Center
09:23PM 43.2097 -87.2206 275° West 351 404 34,000  Level Minneapolis Center
09:24PM 43.2556 -87.3539 295° West 355 409 34,000  Level Minneapolis Center
09:24PM 43.2628 -87.3756 295° West 357 411 34,000  Level Chicago Center
09:25PM 43.3028 -87.4989 294° West 357 411 34,000  Level Chicago Center
09:26PM 43.3508 -87.6431 295° West 357 411 34,000  Level Chicago Center
09:27PM 43.3911 -87.7678 294° West 358 412 34,000  Level Chicago Center
09:28PM 43.4306 -87.8914 294° West 355 409 34,000  Level Chicago Center
09:29PM 43.4711 -88.0156 294° West 357 411 34,000  Level Chicago Center
09:30PM 43.5108 -88.1392 294° West 356 410 34,000  Level Chicago Center
09:31PM 43.5578 -88.2811 295° West 353 406 34,000  Level Chicago Center
09:32PM 43.5975 -88.4061 294° West 358 412 34,000  Level Chicago Center
09:33PM 43.6356 -88.5289 293° West 355 409 34,000  Level Minneapolis Center
09:34PM 43.6739 -88.6511 293° West 351 404 34,000  Level Minneapolis Center
09:35PM 43.7122 -88.7728 294° West 349 402 34,000  Level Minneapolis Center
09:36PM 43.7500 -88.8936 293° West 345 397 34,000  Level Minneapolis Center
09:37PM 43.7875 -89.0144 293° West 343 395 34,000  Level Minneapolis Center
09:38PM 43.8244 -89.1356 293° West 342 394 34,000  Level Minneapolis Center
09:39PM 43.8617 -89.2572 293° West 343 395 34,000  Level Minneapolis Center
09:40PM 43.8992 -89.3792 293° West 343 395 34,000  Level Minneapolis Center
09:41PM 43.9431 -89.5217 293° West 345 397 34,000  Level Minneapolis Center
09:42PM 43.9803 -89.6458 293° West 346 398 34,000  Level Minneapolis Center
09:43PM 44.0181 -89.7700 293° West 349 402 34,000  Level Minneapolis Center
09:44PM 44.0558 -89.8919 293° West 346 398 34,000  Level Minneapolis Center
09:45PM 44.1019 -90.0100 299° West 349 402 34,000  Level Minneapolis Center
09:46PM 44.1636 -90.1181 309° West 354 407 34,000  Level Minneapolis Center
09:47PM 44.2231 -90.2258 308° West 354 407 34,000  Level Minneapolis Center
09:48PM 44.2819 -90.3339 307° West 350 403 34,000  Level Minneapolis Center
09:49PM 44.3408 -90.4406 308° West 348 400 34,000  Level Minneapolis Center
09:50PM 44.3997 -90.5497 307° West 349 402 34,000  Level Minneapolis Center
09:51PM 44.4692 -90.6736 308° West 348 400 34,000  Level Minneapolis Center
09:53PM 44.5278 -90.7819 307° West 349 402 34,000  Level Minneapolis Center
09:54PM 44.5864 -90.8942 306° West 350 403 34,000 -360 Level Minneapolis Center
09:55PM 44.6386 -90.9892 308° West 344 396 33,300 -1,620 Descending Minneapolis Center
09:56PM 44.6922 -91.1089 302° West 356 410 30,800 -2,520 Descending Minneapolis Center
09:57PM 44.7117 -91.2397 282° West 347 399 28,200 -2,520 Descending Minneapolis Center
09:58PM 44.7283 -91.3686 280° West 340 391 25,700 -2,700 Descending Minneapolis Center
09:59PM 44.7481 -91.5189 281° West 330 380 22,700 -2,580 Descending Minneapolis Center
10:00PM 44.7625 -91.6383 280° West 320 368 20,400 -2,280 Descending Minneapolis Center
10:01PM 44.7772 -91.7483 281° West 298 343 18,100 -2,100 Descending Minneapolis Center
10:02PM 44.7900 -91.8561 280° West 285 328 16,100 -2,160 Descending Minneapolis Center
10:03PM 44.8106 -91.9508 287° West 274 315 14,100 -2,340 Descending FAA TRACON SMA TRACON (SMA)
10:03PM 44.8156 -91.9919 280° West 277 319 13,300 -2,280 Descending FAA TRACON SMA TRACON (SMA)
10:03PM 44.8178 -92.0236 276° West 269 310 12,600 -1,920 Descending FAA TRACON SMA TRACON (SMA)
10:04PM 44.8219 -92.0544 281° West 260 299 12,000 -1,980 Descending FAA TRACON SMA TRACON (SMA)
10:04PM 44.8267 -92.0917 280° West 252 290 11,300 -1,740 Descending FAA TRACON SMA TRACON (SMA)
10:04PM 44.8292 -92.1136 279° West 249 287 10,900 -1,680 Descending FAA TRACON SMA TRACON (SMA)
10:05PM 44.8325 -92.1508 277° West 248 285 10,200 -2,280 Descending FAA TRACON SMA TRACON (SMA)
10:05PM 44.8356 -92.1878 277° West 249 287 9,400 -2,100 Descending FAA TRACON SMA TRACON (SMA)
10:05PM 44.8392 -92.2178 280° West 250 288 8,800 -1,680 Descending FAA TRACON SMA TRACON (SMA)
10:06PM 44.8428 -92.2467 280° West 247 284 8,300 -1,980 Descending FAA TRACON SMA TRACON (SMA)
10:06PM 44.8486 -92.2833 283° West 250 288 7,500 -1,980 Descending FAA TRACON SMA TRACON (SMA)
10:06PM 44.8503 -92.3131 275° West 247 284 7,000 -1,740 Descending FAA TRACON SMA TRACON (SMA)
10:07PM 44.8533 -92.3417 279° West 243 280 6,400 -1,500 Descending FAA TRACON SMA TRACON (SMA)
10:07PM 44.8578 -92.3756 280° West 230 265 6,000 -600 Descending FAA TRACON SMA TRACON (SMA)
10:07PM 44.8594 -92.4006 275° West 214 246 6,000  Level FAA TRACON SMA TRACON (SMA)
10:08PM 44.8631 -92.4261 281° West 213 245 6,000  Level FAA TRACON SMA TRACON (SMA)
10:08PM 44.8667 -92.4586 279° West 217 250 6,000  Level FAA TRACON SMA TRACON (SMA)
10:08PM 44.8692 -92.4850 278° West 220 253 6,000  Level FAA TRACON SMA TRACON (SMA)
10:09PM 44.8714 -92.5114 277° West 221 254 6,000 -780 Level FAA TRACON SMA TRACON (SMA)
10:09PM 44.8761 -92.5450 281° West 225 259 5,500 -1,500 Descending FAA TRACON SMA TRACON (SMA)
10:09PM 44.8786 -92.5722 277° West 229 264 5,000 -1,500 Descending FAA TRACON SMA TRACON (SMA)
10:10PM 44.8828 -92.5992 282° West 230 265 4,500 -1,440 Descending FAA TRACON SMA TRACON (SMA)
10:10PM 44.8858 -92.6264 279° West 228 262 4,100 -780 Descending FAA TRACON SMA TRACON (SMA)
10:10PM 44.8892 -92.6581 278° West 217 250 4,000 -180 Descending FAA TRACON SMA TRACON (SMA)
10:11PM 44.8917 -92.6833 278° West 212 244 4,000  Level FAA TRACON SMA TRACON (SMA)
10:11PM 44.8953 -92.7142 279° West 208 239 4,000  Level FAA TRACON SMA TRACON (SMA)
10:11PM 44.9017 -92.7383 290° West 216 249 4,000  Level FAA TRACON SMA TRACON (SMA)
10:12PM 44.9147 -92.7569 315° West 221 254 4,000  Level FAA TRACON SMA TRACON (SMA)
10:12PM 44.9322 -92.7794 318° Northwest 222 255 4,000  Level FAA TRACON SMA TRACON (SMA)
10:12PM 44.9453 -92.7967 317° Northwest 215 247 4,000  Level FAA TRACON SMA TRACON (SMA)
10:13PM 44.9583 -92.8131 318° Northwest 209 241 4,000  Level FAA TRACON SMA TRACON (SMA)
10:13PM 44.9750 -92.8336 319° Northwest 206 237 4,000  Level FAA TRACON SMA TRACON (SMA)
10:13PM 44.9886 -92.8500 320° Northwest 206 237 4,000  Level FAA TRACON SMA TRACON (SMA)
10:14PM 45.0011 -92.8661 318° Northwest 205 236 4,000  Level FAA TRACON SMA TRACON (SMA)
10:14PM 45.0169 -92.8867 317° Northwest 203 234 4,000  Level FAA TRACON SMA TRACON (SMA)
10:14PM 45.0297 -92.9028 318° Northwest 201 231 4,000  Level FAA TRACON SMA TRACON (SMA)
10:15PM 45.0419 -92.9183 318° Northwest 199 229 4,000  Level FAA TRACON SMA TRACON (SMA)
10:15PM 45.0572 -92.9389 316° Northwest 196 226 4,000  Level FAA TRACON SMA TRACON (SMA)
10:15PM 45.0706 -92.9558 318° Northwest 201 231 4,000  Level FAA TRACON SMA TRACON (SMA)
10:16PM 45.0831 -92.9725 317° Northwest 203 234 4,000  Level FAA TRACON SMA TRACON (SMA)
10:16PM 45.0992 -92.9928 318° Northwest 203 234 4,000  Level FAA TRACON SMA TRACON (SMA)
10:16PM 45.1119 -93.0092 318° Northwest 204 235 4,000  Level FAA TRACON SMA TRACON (SMA)
10:17PM 45.1250 -93.0261 318° Northwest 205 236 4,000  Level FAA TRACON SMA TRACON (SMA)
10:17PM 45.1414 -93.0469 318° Northwest 207 238 4,000  Level FAA TRACON SMA TRACON (SMA)
10:17PM 45.1475 -93.0686 292° West 208 239 4,000  Level FAA TRACON SMA TRACON (SMA)
10:18PM 45.1492 -93.0917 276° West 199 229 4,000 -180 Level FAA TRACON SMA TRACON (SMA)
10:18PM 45.1506 -93.1217 274° West 197 227 3,900 -600 Descending FAA TRACON SMA TRACON (SMA)
10:18PM 45.1519 -93.1453 275° West 194 223 3,600 -780 Descending FAA TRACON SMA TRACON (SMA)
10:19PM 45.1478 -93.1664 254° West 191 220 3,400 -300 Descending FAA TRACON SMA TRACON (SMA)
10:19PM 45.1408 -93.1919 249° West 181 208 3,400  Level FAA TRACON SMA TRACON (SMA)
10:19PM 45.1297 -93.2061 222° Southwest 183 211 3,400  Level FAA TRACON SMA TRACON (SMA)
10:20PM 45.1111 -93.2158 200° South 192 221 3,400  Level FAA TRACON SMA TRACON (SMA)
10:20PM 45.0944 -93.2103 167° South 200 230 3,400  Level FAA TRACON SMA TRACON (SMA)
10:20PM 45.0800 -93.1994 152° Southeast 196 226 3,400  Level FAA TRACON SMA TRACON (SMA)
10:21PM 45.0672 -93.1869 145° Southeast 185 213 3,400 -180 Level FAA TRACON SMA TRACON (SMA)
10:21PM 45.0525 -93.1736 147° Southeast 167 192 3,300 -300 Descending FAA TRACON SMA TRACON (SMA)
10:21PM 45.0417 -93.1636 147° Southeast 154 177 3,200 -600 Descending FAA TRACON SMA TRACON (SMA)
10:22PM 45.0311 -93.1533 145° Southeast 149 171 2,900 -960 Descending FAA TRACON SMA TRACON (SMA)
10:22PM 45.0181 -93.1411 147° Southeast 147 169 2,600 -900 Descending FAA TRACON SMA TRACON (SMA)
10:22PM 45.0081 -93.1311 145° Southeast 144 166 2,300 -780 Descending FAA TRACON SMA TRACON (SMA)
10:23PM 44.9983 -93.1217 146° Southeast 142 163 2,100 -780 Descending FAA TRACON SMA TRACON (SMA)
10:23PM 44.9858 -93.1100 147° Southeast 140 161 1,800 -780 Descending FAA TRACON SMA TRACON (SMA)
10:23PM 44.9756 -93.0997 145° Southeast 143 165 1,600 -780 Descending FAA TRACON SMA TRACON (SMA)
10:24PM 44.9656 -93.0903 146° Southeast 141 162 1,300 -900 Descending FAA TRACON SMA TRACON (SMA)
10:24PM 44.9536 -93.0789 146° Southeast 137 158 1,000 -480 Descending FAA TRACON SMA TRACON (SMA)
10:24PM 44.9508 -93.0764 148° Southeast 138 159 1,000  Level FAA TRACON SMA TRACON (SMA)